createdAt,value
2023-03-22T05:15:22.751Z,93.96
2023-03-22T05:16:22.739Z,93.96
2023-03-22T05:17:22.715Z,93.96
2023-03-22T05:18:22.688Z,93.96
2023-03-22T05:19:22.697Z,93.96
2023-03-22T05:20:22.686Z,94.07
2023-03-22T05:21:22.657Z,94.07
2023-03-22T05:22:22.639Z,94.17
2023-03-22T05:23:22.632Z,94.17
2023-03-22T05:24:22.607Z,94.21
2023-03-22T05:25:22.618Z,94.21
2023-03-22T05:26:22.590Z,94.21
2023-03-22T05:27:22.577Z,94.52
2023-03-22T05:28:22.556Z,94.42
2023-03-22T05:29:22.557Z,94.32
2023-03-22T05:30:22.560Z,94.27
2023-03-22T05:31:22.583Z,94.32
2023-03-22T05:32:22.515Z,94.32
2023-03-22T05:33:22.504Z,94.42
2023-03-22T05:34:22.485Z,94.42
2023-03-22T05:35:22.544Z,94.37
2023-03-22T05:36:22.465Z,94.27
2023-03-22T05:37:22.482Z,94.27
2023-03-22T05:38:22.449Z,94.27
2023-03-22T05:39:22.428Z,94.27
2023-03-22T05:40:22.437Z,94.27
2023-03-22T05:41:22.409Z,94.27
2023-03-22T05:42:22.397Z,94.17
2023-03-22T05:43:22.381Z,94.17
2023-03-22T05:44:22.368Z,94.07
2023-03-22T05:45:22.393Z,94.07
2023-03-22T05:46:22.387Z,94.17
2023-03-22T05:47:22.328Z,94.17
2023-03-22T05:48:22.369Z,94.17
2023-03-22T05:49:22.335Z,94.17
2023-03-22T05:50:22.324Z,94.17
2023-03-22T05:51:22.281Z,94.07
2023-03-22T05:52:22.259Z,93.96
2023-03-22T05:53:22.258Z,93.96
2023-03-22T05:54:22.240Z,93.96
2023-03-22T05:55:22.244Z,93.96
2023-03-22T05:56:22.211Z,93.96
2023-03-22T05:57:22.204Z,93.96
2023-03-22T05:58:22.192Z,93.96
2023-03-22T05:59:22.179Z,94.07
2023-03-22T06:00:22.191Z,94.07
2023-03-22T06:01:22.170Z,94.07
2023-03-22T06:02:22.186Z,93.96
2023-03-22T06:03:22.175Z,93.82
2023-03-22T06:04:22.116Z,93.71
2023-03-22T06:05:22.124Z,93.71
2023-03-22T06:06:22.105Z,94.02
2023-03-22T06:07:22.079Z,93.41
2023-03-22T06:08:22.389Z,93.20
2023-03-22T06:09:22.050Z,93.20
2023-03-22T06:10:22.057Z,93.20
2023-03-22T06:11:22.029Z,93.20
2023-03-22T06:12:22.009Z,93.20
2023-03-22T06:13:22.097Z,93.20
2023-03-22T06:14:21.981Z,93.20
2023-03-22T06:15:21.987Z,93.10
2023-03-22T06:16:21.990Z,93.10
2023-03-22T06:17:21.951Z,93.10
2023-03-22T06:18:21.933Z,93.10
2023-03-22T06:19:21.921Z,93.20
2023-03-22T06:20:21.928Z,93.20
2023-03-22T06:21:21.899Z,93.26
2023-03-22T06:22:21.883Z,93.16
2023-03-22T06:23:21.871Z,92.55
2023-03-22T06:24:21.848Z,92.55
2023-03-22T06:25:21.854Z,92.55
2023-03-22T06:26:21.837Z,92.34
2023-03-22T06:27:21.829Z,92.24
2023-03-22T06:28:21.809Z,92.24
2023-03-22T06:29:21.808Z,92.24
2023-03-22T06:30:21.831Z,92.44
2023-03-22T06:31:21.811Z,91.89
2023-03-22T06:32:21.744Z,91.69
2023-03-22T06:33:21.734Z,91.69
2023-03-22T06:34:21.711Z,91.69
2023-03-22T06:35:21.767Z,91.69
2023-03-22T06:36:21.693Z,91.58
2023-03-22T06:37:21.698Z,91.38
2023-03-22T06:38:21.660Z,91.27
2023-03-22T06:39:21.653Z,91.27
2023-03-22T06:40:21.648Z,91.07
2023-03-22T06:41:21.636Z,90.92
2023-03-22T06:42:21.608Z,91.03
2023-03-22T06:43:21.599Z,90.92
2023-03-22T06:44:21.585Z,90.82
2023-03-22T06:45:21.587Z,90.52
2023-03-22T06:46:21.624Z,90.41
2023-03-22T06:47:21.546Z,90.31
2023-03-22T06:48:21.570Z,90.21
2023-03-22T06:49:21.516Z,89.97
2023-03-22T06:50:21.523Z,89.97
2023-03-22T06:51:21.496Z,89.76
2023-03-22T06:52:21.472Z,89.65
2023-03-22T06:53:21.466Z,89.76
2023-03-22T06:54:21.451Z,89.65
2023-03-22T06:55:21.459Z,89.65
2023-03-22T06:56:21.415Z,89.35
2023-03-22T06:57:21.405Z,89.45
2023-03-22T06:58:21.391Z,89.35
2023-03-22T06:59:21.373Z,89.25
2023-03-22T07:00:21.371Z,89.04
2023-03-22T07:01:21.398Z,88.79
2023-03-22T07:02:21.343Z,88.70
2023-03-22T07:03:21.315Z,88.59
2023-03-22T07:04:21.360Z,88.59
2023-03-22T07:05:21.300Z,88.49
2023-03-22T07:06:21.292Z,88.39
2023-03-22T07:07:21.262Z,88.08
2023-03-22T07:08:21.252Z,87.88
2023-03-22T07:09:21.245Z,87.88
2023-03-22T07:10:21.233Z,87.77
2023-03-22T07:11:21.225Z,87.88
2023-03-22T07:12:21.207Z,87.57
2023-03-22T07:13:21.190Z,87.43
2023-03-22T07:14:21.177Z,87.12
2023-03-22T07:15:21.184Z,87.12
2023-03-22T07:16:21.207Z,87.12
2023-03-22T07:17:21.139Z,86.82
2023-03-22T07:18:21.119Z,86.82
2023-03-22T07:19:21.105Z,86.82
2023-03-22T07:20:21.108Z,86.51
2023-03-22T07:21:21.093Z,86.30
2023-03-22T07:22:21.062Z,86.20
2023-03-22T07:23:21.054Z,86.06
2023-03-22T07:24:21.045Z,85.96
2023-03-22T07:25:21.026Z,85.86
2023-03-22T07:26:21.036Z,85.65
2023-03-22T07:27:21.002Z,85.75
2023-03-22T07:28:20.992Z,85.04
2023-03-22T07:29:20.969Z,84.83
2023-03-22T07:30:20.971Z,84.80
2023-03-22T07:31:20.952Z,84.69
2023-03-22T07:32:20.990Z,84.49
2023-03-22T07:33:20.925Z,84.49
2023-03-22T07:34:20.911Z,84.39
2023-03-22T07:35:20.918Z,84.18
2023-03-22T07:36:20.892Z,84.49
2023-03-22T07:37:20.878Z,84.28
2023-03-22T07:38:20.853Z,83.98
2023-03-22T07:39:20.843Z,83.73
2023-03-22T07:40:20.835Z,83.43
2023-03-22T07:41:20.825Z,83.33
2023-03-22T07:42:20.805Z,82.92
2023-03-22T07:43:20.786Z,82.82
2023-03-22T07:44:20.783Z,82.92
2023-03-22T07:45:20.850Z,82.21
2023-03-22T07:46:20.792Z,82.17
2023-03-22T07:47:37.837Z,81.96
2023-03-22T07:48:22.799Z,81.76
2023-03-22T07:49:20.727Z,81.56
2023-03-22T07:50:20.705Z,81.41
2023-03-22T07:51:20.701Z,81.01
2023-03-22T07:52:20.679Z,80.60
2023-03-22T07:53:20.657Z,80.29
2023-03-22T07:54:32.899Z,80.19
2023-03-22T07:55:21.638Z,79.89
2023-03-22T07:56:20.647Z,79.64
2023-03-22T07:57:20.608Z,79.54
2023-03-22T07:58:20.614Z,79.64
2023-03-22T07:59:20.577Z,79.75
2023-03-22T08:00:20.580Z,79.58
2023-03-22T08:01:20.556Z,79.89
2023-03-22T08:02:20.662Z,79.89
2023-03-22T08:03:20.551Z,79.68
2023-03-22T08:04:20.546Z,79.68
2023-03-22T08:05:20.515Z,79.58
2023-03-22T08:06:20.497Z,79.48
2023-03-22T08:07:20.491Z,79.58
2023-03-22T08:08:20.486Z,79.38
2023-03-22T08:09:20.454Z,79.38
2023-03-22T08:10:20.448Z,79.58
2023-03-22T08:11:20.426Z,79.48
2023-03-22T08:12:20.427Z,79.17
2023-03-22T08:13:20.400Z,79.27
2023-03-22T08:14:27.336Z,79.17
2023-03-22T08:15:22.637Z,78.77
2023-03-22T08:16:20.395Z,78.87
2023-03-22T08:17:20.375Z,79.17
2023-03-22T08:18:20.325Z,79.48
2023-03-22T08:19:20.326Z,79.38
2023-03-22T08:20:20.305Z,79.58
2023-03-22T08:21:20.303Z,79.38
2023-03-22T08:22:20.291Z,79.07
2023-03-22T08:23:28.837Z,78.87
2023-03-22T08:24:21.252Z,78.32
2023-03-22T08:25:20.243Z,78.42
2023-03-22T08:26:20.252Z,78.32
2023-03-22T08:27:20.233Z,78.42
2023-03-22T08:28:20.202Z,78.32
2023-03-22T08:29:20.183Z,78.12
2023-03-22T08:30:20.184Z,77.71
2023-03-22T08:31:20.248Z,77.71
2023-03-22T08:32:20.154Z,77.81
2023-03-22T08:33:20.144Z,77.51
2023-03-22T08:34:20.113Z,77.51
2023-03-22T08:35:20.120Z,77.51
2023-03-22T08:36:20.101Z,76.90
2023-03-22T08:37:20.098Z,77.20
2023-03-22T08:38:20.064Z,77.30
2023-03-22T08:39:20.053Z,76.79
2023-03-22T08:40:20.086Z,76.79
2023-03-22T08:41:20.030Z,76.90
2023-03-22T08:42:20.023Z,77.10
2023-03-22T08:43:20.004Z,76.90
2023-03-22T08:44:19.982Z,77.24
2023-03-22T08:45:19.977Z,77.24
2023-03-22T08:46:20.031Z,77.20
2023-03-22T08:47:19.953Z,77.00
2023-03-22T08:48:20.046Z,76.69
2023-03-22T08:49:19.939Z,76.28
2023-03-22T08:50:19.906Z,76.18
2023-03-22T08:51:19.891Z,76.39
2023-03-22T08:52:19.892Z,76.25
2023-03-22T08:53:19.869Z,76.25
2023-03-22T08:54:19.850Z,76.45
2023-03-22T08:55:19.850Z,76.35
2023-03-22T08:56:19.821Z,76.21
2023-03-22T08:57:19.810Z,76.01
2023-03-22T08:58:19.810Z,75.81
2023-03-22T08:59:19.792Z,75.64
2023-03-22T09:00:19.774Z,75.23
2023-03-22T09:01:19.850Z,74.99
2023-03-22T09:02:19.781Z,74.89
2023-03-22T09:03:19.748Z,74.58
2023-03-22T09:04:19.788Z,74.48
2023-03-22T09:05:19.718Z,74.38
2023-03-22T09:06:19.694Z,74.08
2023-03-22T09:07:19.703Z,73.87
2023-03-22T09:08:20.095Z,73.87
2023-03-22T09:09:19.655Z,73.54
2023-03-22T09:10:19.655Z,73.33
2023-03-22T09:11:19.629Z,73.54
2023-03-22T09:12:19.608Z,73.67
2023-03-22T09:13:19.637Z,73.87
2023-03-22T09:14:19.592Z,73.97
2023-03-22T09:15:19.588Z,74.18
2023-03-22T09:16:19.587Z,74.52
2023-03-22T09:17:21.404Z,74.82
2023-03-22T09:18:19.547Z,74.72
2023-03-22T09:19:19.517Z,74.62
2023-03-22T09:20:19.507Z,74.58
2023-03-22T09:21:19.496Z,73.97
2023-03-22T09:22:19.572Z,73.57
2023-03-22T09:23:19.479Z,73.36
2023-03-22T09:24:19.457Z,73.26
2023-03-22T09:25:19.435Z,72.75
2023-03-22T09:26:19.423Z,72.92
2023-03-22T09:27:19.422Z,72.28
2023-03-22T09:28:19.463Z,72.04
2023-03-22T09:29:19.390Z,72.14
2023-03-22T09:30:19.382Z,72.04
2023-03-22T09:31:20.670Z,72.45
2023-03-22T09:32:19.344Z,72.25
2023-03-22T09:33:19.346Z,71.20
2023-03-22T09:34:19.316Z,69.98
2023-03-22T09:35:19.372Z,69.60
2023-03-22T09:36:19.294Z,69.91
2023-03-22T09:37:19.274Z,69.30
2023-03-22T09:38:19.273Z,69.23
2023-03-22T09:39:19.261Z,69.74
2023-03-22T09:40:19.234Z,70.14
2023-03-22T09:41:19.239Z,70.14
2023-03-22T09:42:19.207Z,69.84
2023-03-22T09:43:19.213Z,70.28
2023-03-22T09:44:19.190Z,70.89
2023-03-22T09:45:19.173Z,70.79
2023-03-22T09:46:19.221Z,70.68
2023-03-22T09:47:19.144Z,70.48
2023-03-22T09:48:19.221Z,70.82
2023-03-22T09:49:19.125Z,71.19
2023-03-22T09:50:19.105Z,70.79
2023-03-22T09:51:19.105Z,71.02
2023-03-22T09:52:19.091Z,70.89
2023-03-22T09:53:19.083Z,70.58
2023-03-22T09:54:19.057Z,70.07
2023-03-22T09:55:19.043Z,70.31
2023-03-22T09:56:19.036Z,70.21
2023-03-22T09:57:19.018Z,70.10
2023-03-22T09:58:19.032Z,70.31
2023-03-22T09:59:18.991Z,69.97
2023-03-22T10:00:19.053Z,69.16
2023-03-22T10:01:20.920Z,69.06
2023-03-22T10:02:19.038Z,68.85
2023-03-22T10:03:18.947Z,68.82
2023-03-22T10:04:19.002Z,68.62
2023-03-22T10:05:18.921Z,68.52
2023-03-22T10:06:18.882Z,68.21
2023-03-22T10:07:18.940Z,68.41
2023-03-22T10:08:18.864Z,67.50
2023-03-22T10:09:18.862Z,66.89
2023-03-22T10:10:18.840Z,66.99
2023-03-22T10:11:18.822Z,66.79
2023-03-22T10:12:18.812Z,66.58
2023-03-22T10:13:18.845Z,66.89
2023-03-22T10:14:18.792Z,66.86
2023-03-22T10:15:18.772Z,66.96
2023-03-22T10:16:18.834Z,67.06
2023-03-22T10:17:18.744Z,66.96
2023-03-22T10:18:18.721Z,67.16
2023-03-22T10:19:18.731Z,67.16
2023-03-22T10:20:18.722Z,67.27
2023-03-22T10:21:18.704Z,67.47
2023-03-22T10:22:18.673Z,67.57
2023-03-22T10:23:18.661Z,67.77
2023-03-22T10:24:18.671Z,68.18
2023-03-22T10:25:18.640Z,67.88
2023-03-22T10:26:18.641Z,68.38
2023-03-22T10:27:18.619Z,68.82
2023-03-22T10:28:18.594Z,69.13
2023-03-22T10:29:18.600Z,69.02
2023-03-22T10:30:18.677Z,69.13
2023-03-22T10:31:18.567Z,68.41
2023-03-22T10:32:18.568Z,68.41
2023-03-22T10:33:18.535Z,68.62
2023-03-22T10:34:18.529Z,68.52
2023-03-22T10:35:18.513Z,68.62
2023-03-22T10:36:18.489Z,68.41
2023-03-22T10:37:18.480Z,68.35
2023-03-22T10:38:18.463Z,68.55
2023-03-22T10:39:18.468Z,68.85
2023-03-22T10:40:18.510Z,68.85
2023-03-22T10:41:18.481Z,69.06
2023-03-22T10:42:25.477Z,69.23
2023-03-22T10:43:18.433Z,68.99
2023-03-22T10:44:18.394Z,67.94
2023-03-22T10:45:18.374Z,67.10
2023-03-22T10:46:18.465Z,66.26
2023-03-22T10:47:18.388Z,65.82
2023-03-22T10:48:19.502Z,65.79
2023-03-22T10:49:18.337Z,64.92
2023-03-22T10:50:18.433Z,64.18
2023-03-22T10:51:18.299Z,63.17
2023-03-22T10:52:18.286Z,64.98
2023-03-22T10:53:18.274Z,65.62
2023-03-22T10:54:18.281Z,65.85
2023-03-22T10:55:18.259Z,66.02
2023-03-22T10:56:18.247Z,65.15
2023-03-22T10:57:18.229Z,64.54
2023-03-22T10:58:18.224Z,64.78
2023-03-22T10:59:18.208Z,64.88
2023-03-22T11:00:18.311Z,65.52
2023-03-22T11:01:18.237Z,65.59
2023-03-22T11:02:18.347Z,65.28
2023-03-22T11:03:18.149Z,65.89
2023-03-22T11:04:18.139Z,65.89
2023-03-22T11:05:18.126Z,66.50
2023-03-22T11:06:18.116Z,65.56
2023-03-22T11:07:18.092Z,64.58
2023-03-22T11:08:18.086Z,65.28
2023-03-22T11:09:18.094Z,65.65
2023-03-22T11:10:18.150Z,66.77
2023-03-22T11:11:18.044Z,66.46
2023-03-22T11:12:18.024Z,65.89
2023-03-22T11:13:18.005Z,65.69
2023-03-22T11:14:18.007Z,65.18
2023-03-22T11:15:17.971Z,65.39
2023-03-22T11:16:18.040Z,65.72
2023-03-22T11:17:17.951Z,65.92
2023-03-22T11:18:17.939Z,66.33
2023-03-22T11:19:17.951Z,66.56
2023-03-22T11:20:17.998Z,66.66
2023-03-22T11:21:17.895Z,66.86
2023-03-22T11:22:17.886Z,67.07
2023-03-22T11:23:17.884Z,67.07
2023-03-22T11:24:17.866Z,67.30
2023-03-22T11:25:17.859Z,67.41
2023-03-22T11:26:17.825Z,67.71
2023-03-22T11:27:17.827Z,67.91
2023-03-22T11:28:17.802Z,67.61
2023-03-22T11:29:17.801Z,67.50
2023-03-22T11:30:17.778Z,67.50
2023-03-22T11:31:17.847Z,67.81
2023-03-22T11:32:17.789Z,67.94
2023-03-22T11:33:17.815Z,67.94
2023-03-22T11:34:17.755Z,68.25
2023-03-22T11:35:17.740Z,68.35
2023-03-22T11:36:17.721Z,68.66
2023-03-22T11:37:18.280Z,68.55
2023-03-22T11:38:18.951Z,68.66
2023-03-22T11:39:17.681Z,68.76
2023-03-22T11:40:17.660Z,68.96
2023-03-22T11:41:17.628Z,69.03
2023-03-22T11:42:17.616Z,68.62
2023-03-22T11:43:17.614Z,68.83
2023-03-22T11:44:17.610Z,68.73
2023-03-22T11:45:17.580Z,68.32
2023-03-22T11:46:17.606Z,68.05
2023-03-22T11:47:17.548Z,68.55
2023-03-22T11:48:17.658Z,68.59
2023-03-22T11:49:17.538Z,68.79
2023-03-22T11:50:17.520Z,68.79
2023-03-22T11:51:17.509Z,69.09
2023-03-22T11:52:17.488Z,69.60
2023-03-22T11:53:17.499Z,69.20
2023-03-22T11:54:17.487Z,69.30
2023-03-22T11:55:17.448Z,69.81
2023-03-22T11:56:17.460Z,69.91
2023-03-22T11:57:17.477Z,69.81
2023-03-22T11:58:17.406Z,69.91
2023-03-22T11:59:17.410Z,70.35
2023-03-22T12:00:17.385Z,70.55
2023-03-22T12:01:17.359Z,70.52
2023-03-22T12:02:17.413Z,70.72
2023-03-22T12:03:17.410Z,70.72
2023-03-22T12:04:17.367Z,71.03
2023-03-22T12:05:17.418Z,70.62
2023-03-22T12:06:17.362Z,71.03
2023-03-22T12:07:17.304Z,71.64
2023-03-22T12:08:17.277Z,71.87
2023-03-22T12:09:17.286Z,72.08
2023-03-22T12:10:17.266Z,72.78
2023-03-22T12:11:17.225Z,72.48
2023-03-22T12:12:17.215Z,72.69
2023-03-22T12:13:17.216Z,73.39
2023-03-22T12:14:17.194Z,72.78
2023-03-22T12:15:17.202Z,72.62
2023-03-22T12:16:17.238Z,72.82
2023-03-22T12:17:17.157Z,73.43
2023-03-22T12:18:17.158Z,73.97
2023-03-22T12:19:17.124Z,73.67
2023-03-22T12:20:17.137Z,74.38
2023-03-22T12:21:17.095Z,74.79
2023-03-22T12:22:17.097Z,75.91
2023-03-22T12:23:17.063Z,75.64
2023-03-22T12:24:17.075Z,75.84
2023-03-22T12:25:17.525Z,76.45
2023-03-22T12:26:17.076Z,77.06
2023-03-22T12:27:17.036Z,77.47
2023-03-22T12:28:17.025Z,77.06
2023-03-22T12:29:17.001Z,77.78
2023-03-22T12:30:17.003Z,78.02
2023-03-22T12:31:17.023Z,76.79
2023-03-22T12:32:16.959Z,76.59
2023-03-22T12:33:16.983Z,76.59
2023-03-22T12:34:16.927Z,77.30
2023-03-22T12:35:18.231Z,77.10
2023-03-22T12:36:16.948Z,76.69
2023-03-22T12:37:16.899Z,77.20
2023-03-22T12:38:16.874Z,76.90
2023-03-22T12:39:16.865Z,77.71
2023-03-22T12:40:16.855Z,77.71
2023-03-22T12:41:16.827Z,77.10
2023-03-22T12:42:16.825Z,77.10
2023-03-22T12:43:16.815Z,77.40
2023-03-22T12:44:16.797Z,77.81
2023-03-22T12:45:16.790Z,76.90
2023-03-22T12:46:16.898Z,77.40
2023-03-22T12:47:16.794Z,77.30
2023-03-22T12:48:16.926Z,77.81
2023-03-22T12:49:16.733Z,77.81
2023-03-22T12:50:16.734Z,77.51
2023-03-22T12:51:16.692Z,77.40
2023-03-22T12:52:16.701Z,77.91
2023-03-22T12:53:16.677Z,78.19
2023-03-22T12:54:16.665Z,77.78
2023-03-22T12:55:16.652Z,77.87
2023-03-22T12:56:16.644Z,77.78
2023-03-22T12:57:16.622Z,77.47
2023-03-22T12:58:16.605Z,78.08
2023-03-22T12:59:16.584Z,77.67
2023-03-22T13:00:16.597Z,78.08
2023-03-22T13:01:16.638Z,77.37
2023-03-22T13:02:16.563Z,76.76
2023-03-22T13:03:16.673Z,76.56
2023-03-22T13:04:16.561Z,77.06
2023-03-22T13:05:16.532Z,76.56
2023-03-22T13:06:16.517Z,77.26
2023-03-22T13:07:16.493Z,75.95
2023-03-22T13:08:16.479Z,74.62
2023-03-22T13:09:16.460Z,75.02
2023-03-22T13:10:16.472Z,75.13
2023-03-22T13:11:16.433Z,74.72
2023-03-22T13:12:16.538Z,74.93
2023-03-22T13:13:16.403Z,75.02
2023-03-22T13:14:16.393Z,74.82
2023-03-22T13:15:16.393Z,74.38
2023-03-22T13:16:16.404Z,73.47
2023-03-22T13:17:16.353Z,72.86
2023-03-22T13:18:16.398Z,71.64
2023-03-22T13:19:16.333Z,71.19
2023-03-22T13:20:16.376Z,70.89
2023-03-22T13:21:16.309Z,70.18
2023-03-22T13:22:16.304Z,70.58
2023-03-22T13:23:16.273Z,69.97
2023-03-22T13:24:16.263Z,69.77
2023-03-22T13:25:16.253Z,69.77
2023-03-22T13:26:16.259Z,69.67
2023-03-22T13:27:16.232Z,69.53
2023-03-22T13:28:16.212Z,69.13
2023-03-22T13:29:16.203Z,69.33
2023-03-22T13:30:16.213Z,69.33
2023-03-22T13:31:16.181Z,69.43
2023-03-22T13:32:16.250Z,69.84
2023-03-22T13:33:16.181Z,69.84
2023-03-22T13:34:16.139Z,69.02
2023-03-22T13:35:16.117Z,68.82
2023-03-22T13:36:16.165Z,68.92
2023-03-22T13:37:16.091Z,69.23
2023-03-22T13:38:16.083Z,69.02
2023-03-22T13:39:16.061Z,69.23
2023-03-22T13:40:16.061Z,69.13
2023-03-22T13:41:16.052Z,69.16
2023-03-22T13:42:16.028Z,69.16
2023-03-22T13:43:16.019Z,69.57
2023-03-22T13:44:16.004Z,69.67
2023-03-22T13:45:16.000Z,69.67
2023-03-22T13:46:16.012Z,69.87
2023-03-22T13:47:15.979Z,69.77
2023-03-22T13:48:16.025Z,69.67
2023-03-22T13:49:15.939Z,69.87
2023-03-22T13:50:15.925Z,69.87
2023-03-22T13:51:15.938Z,69.97
2023-03-22T13:52:15.893Z,69.67
2023-03-22T13:53:15.902Z,70.07
2023-03-22T13:54:15.860Z,69.97
2023-03-22T13:55:18.147Z,69.97
2023-03-22T13:56:15.858Z,70.07
2023-03-22T13:57:15.830Z,70.07
2023-03-22T13:58:15.810Z,70.18
2023-03-22T13:59:15.799Z,70.38
2023-03-22T14:00:16.434Z,70.07
2023-03-22T14:01:15.826Z,70.07
2023-03-22T14:02:15.806Z,70.18
2023-03-22T14:03:15.846Z,70.48
2023-03-22T14:04:15.729Z,70.45
2023-03-22T14:05:15.732Z,70.04
2023-03-22T14:06:15.732Z,70.28
2023-03-22T14:07:15.696Z,70.18
2023-03-22T14:08:15.679Z,70.28
2023-03-22T14:09:15.670Z,70.58
2023-03-22T14:10:15.655Z,70.38
2023-03-22T14:11:15.659Z,69.97
2023-03-22T14:12:15.630Z,70.07
2023-03-22T14:13:15.623Z,70.18
2023-03-22T14:14:15.600Z,70.07
2023-03-22T14:15:15.623Z,69.77
2023-03-22T14:16:15.674Z,69.97
2023-03-22T14:17:15.584Z,69.97
2023-03-22T14:18:15.633Z,70.07
2023-03-22T14:19:15.539Z,69.97
2023-03-22T14:20:15.530Z,70.38
2023-03-22T14:21:15.540Z,70.38
